sensor_id;sensor_type;location;lat;lon;timestamp;P1;durP1;ratioP1;P2;durP2;ratioP2
26335;SDS011;14047;50.936;4.654;2023-05-28T00:00:44;15.02;;;7.05;;
26335;SDS011;14047;50.936;4.654;2023-05-28T00:03:11;21.13;;;7.80;;
26335;SDS011;14047;50.936;4.654;2023-05-28T00:05:37;18.48;;;7.40;;
26335;SDS011;14047;50.936;4.654;2023-05-28T00:08:03;16.85;;;7.25;;
26335;SDS011;14047;50.936;4.654;2023-05-28T00:10:29;15.32;;;7.50;;
26335;SDS011;14047;50.936;4.654;2023-05-28T00:12:55;16.75;;;6.78;;
26335;SDS011;14047;50.936;4.654;2023-05-28T00:15:21;18.05;;;7.60;;
26335;SDS011;14047;50.936;4.654;2023-05-28T00:17:47;17.48;;;7.00;;
26335;SDS011;14047;50.936;4.654;2023-05-28T00:20:13;13.68;;;6.97;;
26335;SDS011;14047;50.936;4.654;2023-05-28T00:22:39;17.58;;;7.60;;
26335;SDS011;14047;50.936;4.654;2023-05-28T00:25:05;19.00;;;8.82;;
26335;SDS011;14047;50.936;4.654;2023-05-28T00:27:31;19.15;;;7.60;;
26335;SDS011;14047;50.936;4.654;2023-05-28T00:29:57;16.67;;;7.38;;
26335;SDS011;14047;50.936;4.654;2023-05-28T00:32:23;16.05;;;7.75;;
26335;SDS011;14047;50.936;4.654;2023-05-28T00:34:49;12.60;;;7.15;;
26335;SDS011;14047;50.936;4.654;2023-05-28T00:37:15;14.27;;;7.53;;
26335;SDS011;14047;50.936;4.654;2023-05-28T00:39:41;13.27;;;7.60;;
26335;SDS011;14047;50.936;4.654;2023-05-28T00:42:07;18.35;;;8.30;;
26335;SDS011;14047;50.936;4.654;2023-05-28T00:44:36;17.17;;;8.38;;
26335;SDS011;14047;50.936;4.654;2023-05-28T00:47:03;16.58;;;8.30;;
26335;SDS011;14047;50.936;4.654;2023-05-28T00:49:30;19.75;;;7.88;;
26335;SDS011;14047;50.936;4.654;2023-05-28T00:51:58;16.00;;;7.82;;
26335;SDS011;14047;50.936;4.654;2023-05-28T00:54:26;14.98;;;8.30;;
26335;SDS011;14047;50.936;4.654;2023-05-28T00:56:53;16.00;;;8.57;;
26335;SDS011;14047;50.936;4.654;2023-05-28T00:59:19;16.92;;;8.18;;
26335;SDS011;14047;50.936;4.654;2023-05-28T01:01:47;18.25;;;7.35;;
26335;SDS011;14047;50.936;4.654;2023-05-28T01:04:13;18.27;;;7.85;;
26335;SDS011;14047;50.936;4.654;2023-05-28T01:06:39;20.77;;;8.15;;
26335;SDS011;14047;50.936;4.654;2023-05-28T01:09:05;17.10;;;8.05;;
26335;SDS011;14047;50.936;4.654;2023-05-28T01:11:35;22.63;;;9.15;;
26335;SDS011;14047;50.936;4.654;2023-05-28T01:14:02;22.05;;;10.18;;
26335;SDS011;14047;50.936;4.654;2023-05-28T01:16:30;18.63;;;9.77;;
26335;SDS011;14047;50.936;4.654;2023-05-28T01:18:57;17.58;;;9.27;;
26335;SDS011;14047;50.936;4.654;2023-05-28T01:21:24;18.15;;;9.98;;
26335;SDS011;14047;50.936;4.654;2023-05-28T01:23:53;24.65;;;9.80;;
26335;SDS011;14047;50.936;4.654;2023-05-28T01:26:22;21.88;;;10.10;;
26335;SDS011;14047;50.936;4.654;2023-05-28T01:28:49;19.83;;;9.13;;
26335;SDS011;14047;50.936;4.654;2023-05-28T01:31:16;22.08;;;8.50;;
26335;SDS011;14047;50.936;4.654;2023-05-28T01:33:42;15.73;;;8.88;;
26335;SDS011;14047;50.936;4.654;2023-05-28T01:36:20;23.13;;;9.32;;
26335;SDS011;14047;50.936;4.654;2023-05-28T01:38:52;20.40;;;8.98;;
26335;SDS011;14047;50.936;4.654;2023-05-28T01:41:26;17.80;;;8.20;;
26335;SDS011;14047;50.936;4.654;2023-05-28T01:43:53;14.52;;;8.30;;
26335;SDS011;14047;50.936;4.654;2023-05-28T01:46:20;20.05;;;8.95;;
26335;SDS011;14047;50.936;4.654;2023-05-28T01:48:48;17.48;;;8.70;;
26335;SDS011;14047;50.936;4.654;2023-05-28T01:51:16;22.50;;;9.52;;
26335;SDS011;14047;50.936;4.654;2023-05-28T01:53:46;17.02;;;8.45;;
26335;SDS011;14047;50.936;4.654;2023-05-28T01:56:11;19.25;;;9.15;;
26335;SDS011;14047;50.936;4.654;2023-05-28T01:58:38;15.95;;;8.32;;
26335;SDS011;14047;50.936;4.654;2023-05-28T02:03:36;16.08;;;7.32;;
26335;SDS011;14047;50.936;4.654;2023-05-28T02:06:02;19.67;;;8.43;;
26335;SDS011;14047;50.936;4.654;2023-05-28T02:08:29;18.98;;;8.20;;
26335;SDS011;14047;50.936;4.654;2023-05-28T02:10:55;20.17;;;8.30;;
26335;SDS011;14047;50.936;4.654;2023-05-28T02:13:21;17.88;;;7.57;;
26335;SDS011;14047;50.936;4.654;2023-05-28T02:15:47;16.05;;;8.13;;
26335;SDS011;14047;50.936;4.654;2023-05-28T02:18:13;17.83;;;8.50;;
26335;SDS011;14047;50.936;4.654;2023-05-28T02:20:41;21.70;;;8.85;;
26335;SDS011;14047;50.936;4.654;2023-05-28T02:23:08;20.58;;;8.02;;
26335;SDS011;14047;50.936;4.654;2023-05-28T02:25:34;19.08;;;8.30;;
26335;SDS011;14047;50.936;4.654;2023-05-28T02:28:00;24.05;;;8.20;;
26335;SDS011;14047;50.936;4.654;2023-05-28T02:30:27;14.77;;;7.28;;
26335;SDS011;14047;50.936;4.654;2023-05-28T02:32:52;18.85;;;7.45;;
26335;SDS011;14047;50.936;4.654;2023-05-28T02:35:20;16.92;;;7.70;;
26335;SDS011;14047;50.936;4.654;2023-05-28T02:37:49;17.00;;;8.48;;
26335;SDS011;14047;50.936;4.654;2023-05-28T02:40:15;20.70;;;8.20;;
26335;SDS011;14047;50.936;4.654;2023-05-28T02:42:42;21.08;;;9.65;;
26335;SDS011;14047;50.936;4.654;2023-05-28T02:45:09;19.55;;;8.43;;
26335;SDS011;14047;50.936;4.654;2023-05-28T02:47:35;17.20;;;8.93;;
26335;SDS011;14047;50.936;4.654;2023-05-28T02:50:01;18.50;;;8.75;;
26335;SDS011;14047;50.936;4.654;2023-05-28T02:52:39;19.67;;;7.78;;
26335;SDS011;14047;50.936;4.654;2023-05-28T02:55:05;18.38;;;7.72;;
26335;SDS011;14047;50.936;4.654;2023-05-28T02:57:31;17.10;;;8.02;;
26335;SDS011;14047;50.936;4.654;2023-05-28T02:59:58;11.73;;;7.63;;
26335;SDS011;14047;50.936;4.654;2023-05-28T03:02:24;18.13;;;7.75;;
26335;SDS011;14047;50.936;4.654;2023-05-28T03:04:50;17.20;;;7.95;;
26335;SDS011;14047;50.936;4.654;2023-05-28T03:07:18;19.17;;;8.07;;
26335;SDS011;14047;50.936;4.654;2023-05-28T03:09:45;17.73;;;8.57;;
26335;SDS011;14047;50.936;4.654;2023-05-28T03:12:11;18.73;;;8.98;;
26335;SDS011;14047;50.936;4.654;2023-05-28T03:14:37;19.15;;;9.13;;
26335;SDS011;14047;50.936;4.654;2023-05-28T03:17:03;19.48;;;8.40;;
26335;SDS011;14047;50.936;4.654;2023-05-28T03:19:29;17.15;;;8.88;;
26335;SDS011;14047;50.936;4.654;2023-05-28T03:21:56;18.00;;;8.43;;
26335;SDS011;14047;50.936;4.654;2023-05-28T03:24:24;17.27;;;8.25;;
26335;SDS011;14047;50.936;4.654;2023-05-28T03:26:53;22.00;;;9.13;;
26335;SDS011;14047;50.936;4.654;2023-05-28T03:29:23;20.85;;;8.73;;
26335;SDS011;14047;50.936;4.654;2023-05-28T03:31:59;21.15;;;9.50;;
26335;SDS011;14047;50.936;4.654;2023-05-28T03:34:26;23.92;;;10.55;;
26335;SDS011;14047;50.936;4.654;2023-05-28T03:36:52;24.52;;;10.65;;
26335;SDS011;14047;50.936;4.654;2023-05-28T03:39:18;23.42;;;10.10;;
26335;SDS011;14047;50.936;4.654;2023-05-28T03:41:44;21.85;;;9.57;;
26335;SDS011;14047;50.936;4.654;2023-05-28T03:44:12;19.38;;;9.68;;
26335;SDS011;14047;50.936;4.654;2023-05-28T03:46:38;22.13;;;10.02;;
26335;SDS011;14047;50.936;4.654;2023-05-28T03:49:06;30.92;;;8.95;;
26335;SDS011;14047;50.936;4.654;2023-05-28T03:51:32;22.67;;;9.95;;
26335;SDS011;14047;50.936;4.654;2023-05-28T03:53:58;21.23;;;10.13;;
26335;SDS011;14047;50.936;4.654;2023-05-28T03:56:24;23.33;;;10.38;;
26335;SDS011;14047;50.936;4.654;2023-05-28T03:58:51;21.42;;;9.73;;
26335;SDS011;14047;50.936;4.654;2023-05-28T04:01:17;18.83;;;9.25;;
26335;SDS011;14047;50.936;4.654;2023-05-28T04:03:43;21.55;;;9.95;;
26335;SDS011;14047;50.936;4.654;2023-05-28T04:06:09;18.50;;;9.38;;
26335;SDS011;14047;50.936;4.654;2023-05-28T04:08:35;21.63;;;10.00;;
26335;SDS011;14047;50.936;4.654;2023-05-28T04:11:01;25.67;;;9.73;;
26335;SDS011;14047;50.936;4.654;2023-05-28T04:13:28;16.55;;;8.77;;
26335;SDS011;14047;50.936;4.654;2023-05-28T04:15:54;20.80;;;9.85;;
26335;SDS011;14047;50.936;4.654;2023-05-28T04:18:21;22.90;;;11.07;;
26335;SDS011;14047;50.936;4.654;2023-05-28T04:20:47;19.50;;;9.02;;
26335;SDS011;14047;50.936;4.654;2023-05-28T04:23:12;23.65;;;10.02;;
26335;SDS011;14047;50.936;4.654;2023-05-28T04:25:38;16.63;;;9.43;;
26335;SDS011;14047;50.936;4.654;2023-05-28T04:28:04;17.30;;;9.45;;
26335;SDS011;14047;50.936;4.654;2023-05-28T04:30:32;22.60;;;9.80;;
26335;SDS011;14047;50.936;4.654;2023-05-28T04:32:58;23.67;;;9.90;;
26335;SDS011;14047;50.936;4.654;2023-05-28T04:35:24;24.23;;;10.00;;
26335;SDS011;14047;50.936;4.654;2023-05-28T04:37:52;20.92;;;9.55;;
26335;SDS011;14047;50.936;4.654;2023-05-28T04:40:18;22.48;;;10.10;;
26335;SDS011;14047;50.936;4.654;2023-05-28T04:42:46;23.73;;;10.38;;
26335;SDS011;14047;50.936;4.654;2023-05-28T04:45:13;21.67;;;9.30;;
26335;SDS011;14047;50.936;4.654;2023-05-28T04:47:43;22.77;;;9.93;;
26335;SDS011;14047;50.936;4.654;2023-05-28T04:50:10;30.90;;;10.15;;
26335;SDS011;14047;50.936;4.654;2023-05-28T04:52:37;26.13;;;11.25;;
26335;SDS011;14047;50.936;4.654;2023-05-28T04:55:03;23.33;;;10.57;;
26335;SDS011;14047;50.936;4.654;2023-05-28T04:57:31;21.88;;;9.77;;
26335;SDS011;14047;50.936;4.654;2023-05-28T04:59:59;17.98;;;8.75;;
26335;SDS011;14047;50.936;4.654;2023-05-28T05:02:25;23.60;;;10.10;;
26335;SDS011;14047;50.936;4.654;2023-05-28T05:04:51;21.80;;;9.88;;
26335;SDS011;14047;50.936;4.654;2023-05-28T05:07:19;22.67;;;10.50;;
26335;SDS011;14047;50.936;4.654;2023-05-28T05:09:46;20.48;;;9.98;;
26335;SDS011;14047;50.936;4.654;2023-05-28T05:12:12;20.98;;;9.85;;
26335;SDS011;14047;50.936;4.654;2023-05-28T05:14:38;21.70;;;10.55;;
26335;SDS011;14047;50.936;4.654;2023-05-28T05:17:04;22.88;;;9.35;;
26335;SDS011;14047;50.936;4.654;2023-05-28T05:19:32;17.45;;;9.73;;
26335;SDS011;14047;50.936;4.654;2023-05-28T05:21:58;23.48;;;9.85;;
26335;SDS011;14047;50.936;4.654;2023-05-28T05:24:24;24.40;;;10.43;;
26335;SDS011;14047;50.936;4.654;2023-05-28T05:26:50;27.13;;;11.32;;
26335;SDS011;14047;50.936;4.654;2023-05-28T05:29:16;26.02;;;12.25;;
26335;SDS011;14047;50.936;4.654;2023-05-28T05:31:42;29.77;;;13.15;;
26335;SDS011;14047;50.936;4.654;2023-05-28T05:34:10;26.48;;;12.82;;
26335;SDS011;14047;50.936;4.654;2023-05-28T05:36:58;27.60;;;12.75;;
26335;SDS011;14047;50.936;4.654;2023-05-28T05:39:42;28.95;;;12.55;;
26335;SDS011;14047;50.936;4.654;2023-05-28T05:42:24;35.20;;;12.77;;
26335;SDS011;14047;50.936;4.654;2023-05-28T05:44:53;26.90;;;12.45;;
26335;SDS011;14047;50.936;4.654;2023-05-28T05:47:20;24.70;;;12.95;;
26335;SDS011;14047;50.936;4.654;2023-05-28T05:49:46;23.40;;;12.10;;
26335;SDS011;14047;50.936;4.654;2023-05-28T05:52:13;28.63;;;12.45;;
26335;SDS011;14047;50.936;4.654;2023-05-28T05:54:41;27.13;;;12.90;;
26335;SDS011;14047;50.936;4.654;2023-05-28T05:57:06;27.13;;;11.65;;
26335;SDS011;14047;50.936;4.654;2023-05-28T05:59:33;32.97;;;12.50;;
26335;SDS011;14047;50.936;4.654;2023-05-28T06:02:00;22.98;;;11.77;;
26335;SDS011;14047;50.936;4.654;2023-05-28T06:04:27;23.45;;;11.88;;
26335;SDS011;14047;50.936;4.654;2023-05-28T06:07:25;22.90;;;12.75;;
26335;SDS011;14047;50.936;4.654;2023-05-28T06:10:17;23.92;;;12.10;;
26335;SDS011;14047;50.936;4.654;2023-05-28T06:12:43;25.30;;;11.20;;
26335;SDS011;14047;50.936;4.654;2023-05-28T06:15:10;25.08;;;12.05;;
26335;SDS011;14047;50.936;4.654;2023-05-28T06:17:37;24.75;;;11.73;;
26335;SDS011;14047;50.936;4.654;2023-05-28T06:20:03;25.38;;;12.07;;
26335;SDS011;14047;50.936;4.654;2023-05-28T06:22:32;25.70;;;11.32;;
26335;SDS011;14047;50.936;4.654;2023-05-28T06:24:58;20.88;;;10.63;;
26335;SDS011;14047;50.936;4.654;2023-05-28T06:27:26;26.73;;;11.93;;
26335;SDS011;14047;50.936;4.654;2023-05-28T06:29:53;31.77;;;11.85;;
26335;SDS011;14047;50.936;4.654;2023-05-28T06:32:19;21.05;;;11.50;;
26335;SDS011;14047;50.936;4.654;2023-05-28T06:34:45;27.15;;;11.00;;
26335;SDS011;14047;50.936;4.654;2023-05-28T06:37:11;23.05;;;11.23;;
26335;SDS011;14047;50.936;4.654;2023-05-28T06:39:39;25.83;;;10.93;;
26335;SDS011;14047;50.936;4.654;2023-05-28T06:42:05;39.83;;;12.85;;
26335;SDS011;14047;50.936;4.654;2023-05-28T06:45:07;29.90;;;10.70;;
26335;SDS011;14047;50.936;4.654;2023-05-28T06:47:33;24.13;;;10.68;;
26335;SDS011;14047;50.936;4.654;2023-05-28T06:49:59;23.70;;;10.63;;
26335;SDS011;14047;50.936;4.654;2023-05-28T06:52:25;28.67;;;11.43;;
26335;SDS011;14047;50.936;4.654;2023-05-28T06:54:52;20.80;;;10.25;;
26335;SDS011;14047;50.936;4.654;2023-05-28T06:57:20;21.58;;;9.77;;
26335;SDS011;14047;50.936;4.654;2023-05-28T07:00:06;23.13;;;10.75;;
26335;SDS011;14047;50.936;4.654;2023-05-28T07:02:54;24.27;;;10.18;;
26335;SDS011;14047;50.936;4.654;2023-05-28T07:05:38;24.85;;;10.50;;
26335;SDS011;14047;50.936;4.654;2023-05-28T07:08:04;20.90;;;10.45;;
26335;SDS011;14047;50.936;4.654;2023-05-28T07:10:31;24.00;;;10.40;;
26335;SDS011;14047;50.936;4.654;2023-05-28T07:12:57;18.00;;;9.77;;
26335;SDS011;14047;50.936;4.654;2023-05-28T07:15:23;20.58;;;9.15;;
26335;SDS011;14047;50.936;4.654;2023-05-28T07:17:49;21.15;;;9.90;;
26335;SDS011;14047;50.936;4.654;2023-05-28T07:20:15;15.57;;;9.15;;
26335;SDS011;14047;50.936;4.654;2023-05-28T07:22:51;23.05;;;9.57;;
26335;SDS011;14047;50.936;4.654;2023-05-28T07:25:17;18.70;;;9.80;;
26335;SDS011;14047;50.936;4.654;2023-05-28T07:27:43;22.65;;;9.68;;
26335;SDS011;14047;50.936;4.654;2023-05-28T07:30:10;27.90;;;9.40;;
26335;SDS011;14047;50.936;4.654;2023-05-28T07:32:37;26.30;;;9.05;;
26335;SDS011;14047;50.936;4.654;2023-05-28T07:35:03;18.65;;;9.13;;
26335;SDS011;14047;50.936;4.654;2023-05-28T07:37:31;20.33;;;8.82;;
26335;SDS011;14047;50.936;4.654;2023-05-28T07:39:58;21.02;;;9.82;;
26335;SDS011;14047;50.936;4.654;2023-05-28T07:42:24;20.85;;;8.77;;
26335;SDS011;14047;50.936;4.654;2023-05-28T07:44:59;19.13;;;8.82;;
26335;SDS011;14047;50.936;4.654;2023-05-28T07:47:25;21.15;;;9.30;;
26335;SDS011;14047;50.936;4.654;2023-05-28T07:50:03;24.20;;;9.32;;
26335;SDS011;14047;50.936;4.654;2023-05-28T07:52:50;15.40;;;7.95;;
26335;SDS011;14047;50.936;4.654;2023-05-28T07:55:17;20.40;;;9.20;;
26335;SDS011;14047;50.936;4.654;2023-05-28T07:57:43;19.65;;;8.35;;
26335;SDS011;14047;50.936;4.654;2023-05-28T08:00:09;20.63;;;9.15;;
26335;SDS011;14047;50.936;4.654;2023-05-28T08:02:51;16.77;;;8.02;;
26335;SDS011;14047;50.936;4.654;2023-05-28T08:05:20;25.17;;;8.30;;
26335;SDS011;14047;50.936;4.654;2023-05-28T08:07:46;15.90;;;8.30;;
26335;SDS011;14047;50.936;4.654;2023-05-28T08:10:12;23.65;;;9.00;;
26335;SDS011;14047;50.936;4.654;2023-05-28T08:12:38;19.52;;;8.00;;
26335;SDS011;14047;50.936;4.654;2023-05-28T08:15:05;19.58;;;8.00;;
26335;SDS011;14047;50.936;4.654;2023-05-28T08:17:34;18.85;;;7.65;;
26335;SDS011;14047;50.936;4.654;2023-05-28T08:20:07;19.80;;;8.35;;
26335;SDS011;14047;50.936;4.654;2023-05-28T08:22:45;19.35;;;8.18;;
26335;SDS011;14047;50.936;4.654;2023-05-28T08:25:12;21.65;;;7.65;;
26335;SDS011;14047;50.936;4.654;2023-05-28T08:27:38;22.02;;;9.18;;
26335;SDS011;14047;50.936;4.654;2023-05-28T08:30:04;18.00;;;7.43;;
26335;SDS011;14047;50.936;4.654;2023-05-28T08:32:37;20.23;;;7.85;;
26335;SDS011;14047;50.936;4.654;2023-05-28T08:35:03;13.05;;;7.38;;
26335;SDS011;14047;50.936;4.654;2023-05-28T08:37:29;17.58;;;6.40;;
26335;SDS011;14047;50.936;4.654;2023-05-28T08:40:15;15.05;;;6.70;;
26335;SDS011;14047;50.936;4.654;2023-05-28T08:42:41;18.58;;;7.13;;
26335;SDS011;14047;50.936;4.654;2023-05-28T08:45:09;14.23;;;7.30;;
26335;SDS011;14047;50.936;4.654;2023-05-28T08:47:38;17.20;;;6.78;;
26335;SDS011;14047;50.936;4.654;2023-05-28T08:50:13;19.17;;;6.75;;
26335;SDS011;14047;50.936;4.654;2023-05-28T08:53:02;15.80;;;6.75;;
26335;SDS011;14047;50.936;4.654;2023-05-28T08:55:30;17.63;;;6.75;;
26335;SDS011;14047;50.936;4.654;2023-05-28T08:58:07;15.90;;;6.90;;
26335;SDS011;14047;50.936;4.654;2023-05-28T09:00:33;17.17;;;7.18;;
26335;SDS011;14047;50.936;4.654;2023-05-28T09:03:18;14.88;;;6.40;;
26335;SDS011;14047;50.936;4.654;2023-05-28T09:05:44;20.17;;;6.43;;
26335;SDS011;14047;50.936;4.654;2023-05-28T09:08:10;16.42;;;6.05;;
26335;SDS011;14047;50.936;4.654;2023-05-28T09:10:38;14.90;;;6.78;;
26335;SDS011;14047;50.936;4.654;2023-05-28T09:13:05;14.40;;;5.95;;
26335;SDS011;14047;50.936;4.654;2023-05-28T09:15:32;18.08;;;6.25;;
26335;SDS011;14047;50.936;4.654;2023-05-28T09:18:06;13.75;;;6.05;;
26335;SDS011;14047;50.936;4.654;2023-05-28T09:20:33;14.98;;;5.95;;
26335;SDS011;14047;50.936;4.654;2023-05-28T09:23:03;17.38;;;6.13;;
26335;SDS011;14047;50.936;4.654;2023-05-28T09:26:00;13.55;;;5.93;;
26335;SDS011;14047;50.936;4.654;2023-05-28T09:28:31;15.50;;;5.60;;
26335;SDS011;14047;50.936;4.654;2023-05-28T09:31:03;9.65;;;5.18;;
26335;SDS011;14047;50.936;4.654;2023-05-28T09:33:32;13.50;;;5.80;;
26335;SDS011;14047;50.936;4.654;2023-05-28T09:35:59;15.18;;;5.53;;
26335;SDS011;14047;50.936;4.654;2023-05-28T09:38:25;12.40;;;6.07;;
26335;SDS011;14047;50.936;4.654;2023-05-28T09:40:55;14.30;;;5.55;;
26335;SDS011;14047;50.936;4.654;2023-05-28T09:43:27;10.48;;;4.80;;
26335;SDS011;14047;50.936;4.654;2023-05-28T09:46:28;14.07;;;5.50;;
26335;SDS011;14047;50.936;4.654;2023-05-28T09:48:51;17.92;;;5.35;;
26335;SDS011;14047;50.936;4.654;2023-05-28T09:51:17;15.57;;;5.63;;
26335;SDS011;14047;50.936;4.654;2023-05-28T09:53:46;13.80;;;5.65;;
26335;SDS011;14047;50.936;4.654;2023-05-28T09:56:14;10.68;;;5.28;;
26335;SDS011;14047;50.936;4.654;2023-05-28T09:58:40;13.73;;;5.10;;
26335;SDS011;14047;50.936;4.654;2023-05-28T10:01:13;14.38;;;5.53;;
26335;SDS011;14047;50.936;4.654;2023-05-28T10:03:44;14.38;;;5.70;;
26335;SDS011;14047;50.936;4.654;2023-05-28T10:06:16;11.27;;;5.43;;
26335;SDS011;14047;50.936;4.654;2023-05-28T10:08:46;12.45;;;5.90;;
26335;SDS011;14047;50.936;4.654;2023-05-28T10:11:17;13.98;;;5.47;;
26335;SDS011;14047;50.936;4.654;2023-05-28T10:13:48;11.35;;;5.25;;
26335;SDS011;14047;50.936;4.654;2023-05-28T10:16:14;11.20;;;4.95;;
26335;SDS011;14047;50.936;4.654;2023-05-28T10:18:41;14.82;;;5.45;;
26335;SDS011;14047;50.936;4.654;2023-05-28T10:21:08;9.93;;;4.88;;
26335;SDS011;14047;50.936;4.654;2023-05-28T10:23:36;11.20;;;4.72;;
26335;SDS011;14047;50.936;4.654;2023-05-28T10:26:03;10.82;;;4.90;;
26335;SDS011;14047;50.936;4.654;2023-05-28T10:28:29;9.77;;;4.32;;
26335;SDS011;14047;50.936;4.654;2023-05-28T10:30:59;11.52;;;5.30;;
26335;SDS011;14047;50.936;4.654;2023-05-28T10:33:30;10.45;;;4.32;;
26335;SDS011;14047;50.936;4.654;2023-05-28T10:35:58;9.13;;;4.68;;
26335;SDS011;14047;50.936;4.654;2023-05-28T10:38:26;13.23;;;5.05;;
26335;SDS011;14047;50.936;4.654;2023-05-28T10:41:01;8.88;;;4.15;;
26335;SDS011;14047;50.936;4.654;2023-05-28T10:43:40;12.55;;;4.35;;
26335;SDS011;14047;50.936;4.654;2023-05-28T10:46:10;17.77;;;4.95;;
26335;SDS011;14047;50.936;4.654;2023-05-28T10:49:25;10.52;;;4.32;;
26335;SDS011;14047;50.936;4.654;2023-05-28T10:51:54;10.32;;;4.43;;
26335;SDS011;14047;50.936;4.654;2023-05-28T10:57:07;9.90;;;3.90;;
26335;SDS011;14047;50.936;4.654;2023-05-28T10:59:52;14.57;;;3.70;;
26335;SDS011;14047;50.936;4.654;2023-05-28T11:02:27;12.75;;;4.28;;
26335;SDS011;14047;50.936;4.654;2023-05-28T11:04:55;11.90;;;4.35;;
26335;SDS011;14047;50.936;4.654;2023-05-28T11:07:23;9.20;;;3.83;;
26335;SDS011;14047;50.936;4.654;2023-05-28T11:10:01;14.38;;;4.00;;
26335;SDS011;14047;50.936;4.654;2023-05-28T11:12:30;9.32;;;4.05;;
26335;SDS011;14047;50.936;4.654;2023-05-28T11:14:57;14.55;;;4.47;;
26335;SDS011;14047;50.936;4.654;2023-05-28T11:17:23;13.77;;;4.07;;
26335;SDS011;14047;50.936;4.654;2023-05-28T11:19:50;10.38;;;3.60;;
26335;SDS011;14047;50.936;4.654;2023-05-28T11:22:17;12.60;;;4.55;;
26335;SDS011;14047;50.936;4.654;2023-05-28T11:24:49;10.68;;;4.03;;
26335;SDS011;14047;50.936;4.654;2023-05-28T11:27:26;11.70;;;4.25;;
26335;SDS011;14047;50.936;4.654;2023-05-28T11:29:54;12.23;;;3.97;;
26335;SDS011;14047;50.936;4.654;2023-05-28T11:32:22;15.27;;;4.60;;
26335;SDS011;14047;50.936;4.654;2023-05-28T11:34:49;11.75;;;4.22;;
26335;SDS011;14047;50.936;4.654;2023-05-28T11:37:24;14.18;;;5.05;;
26335;SDS011;14047;50.936;4.654;2023-05-28T11:39:56;14.45;;;4.85;;
26335;SDS011;14047;50.936;4.654;2023-05-28T11:42:23;11.38;;;4.32;;
26335;SDS011;14047;50.936;4.654;2023-05-28T11:44:50;10.80;;;3.70;;
26335;SDS011;14047;50.936;4.654;2023-05-28T11:47:16;9.27;;;3.95;;
26335;SDS011;14047;50.936;4.654;2023-05-28T11:49:44;14.38;;;4.65;;
26335;SDS011;14047;50.936;4.654;2023-05-28T11:52:17;12.65;;;4.43;;
26335;SDS011;14047;50.936;4.654;2023-05-28T11:54:45;12.52;;;4.40;;
26335;SDS011;14047;50.936;4.654;2023-05-28T11:57:23;10.77;;;3.90;;
26335;SDS011;14047;50.936;4.654;2023-05-28T12:00:01;7.35;;;3.60;;
26335;SDS011;14047;50.936;4.654;2023-05-28T12:02:45;9.43;;;3.80;;
26335;SDS011;14047;50.936;4.654;2023-05-28T12:05:13;12.30;;;4.45;;
26335;SDS011;14047;50.936;4.654;2023-05-28T12:07:47;10.93;;;4.10;;
26335;SDS011;14047;50.936;4.654;2023-05-28T12:10:15;10.80;;;4.18;;
26335;SDS011;14047;50.936;4.654;2023-05-28T12:12:46;8.45;;;3.80;;
26335;SDS011;14047;50.936;4.654;2023-05-28T12:15:27;11.88;;;4.07;;
26335;SDS011;14047;50.936;4.654;2023-05-28T12:17:55;10.40;;;4.15;;
26335;SDS011;14047;50.936;4.654;2023-05-28T12:20:30;8.88;;;3.75;;
26335;SDS011;14047;50.936;4.654;2023-05-28T12:23:04;8.25;;;4.22;;
26335;SDS011;14047;50.936;4.654;2023-05-28T12:28:15;10.30;;;4.35;;
26335;SDS011;14047;50.936;4.654;2023-05-28T12:30:42;10.15;;;4.10;;
26335;SDS011;14047;50.936;4.654;2023-05-28T12:33:12;11.05;;;3.83;;
26335;SDS011;14047;50.936;4.654;2023-05-28T12:35:38;10.45;;;4.15;;
26335;SDS011;14047;50.936;4.654;2023-05-28T12:38:04;11.13;;;4.32;;
26335;SDS011;14047;50.936;4.654;2023-05-28T12:40:30;13.38;;;4.03;;
26335;SDS011;14047;50.936;4.654;2023-05-28T12:42:56;8.48;;;3.65;;
26335;SDS011;14047;50.936;4.654;2023-05-28T12:45:22;9.05;;;4.15;;
26335;SDS011;14047;50.936;4.654;2023-05-28T12:47:48;9.48;;;3.92;;
26335;SDS011;14047;50.936;4.654;2023-05-28T12:50:14;8.95;;;3.80;;
26335;SDS011;14047;50.936;4.654;2023-05-28T12:52:40;11.95;;;4.50;;
26335;SDS011;14047;50.936;4.654;2023-05-28T12:55:06;10.10;;;4.07;;
26335;SDS011;14047;50.936;4.654;2023-05-28T12:57:32;10.60;;;4.38;;
26335;SDS011;14047;50.936;4.654;2023-05-28T12:59:58;12.57;;;4.60;;
26335;SDS011;14047;50.936;4.654;2023-05-28T13:02:24;10.48;;;4.30;;
26335;SDS011;14047;50.936;4.654;2023-05-28T13:04:50;10.27;;;4.38;;
26335;SDS011;14047;50.936;4.654;2023-05-28T13:07:16;11.70;;;4.20;;
26335;SDS011;14047;50.936;4.654;2023-05-28T13:09:41;10.50;;;4.20;;
26335;SDS011;14047;50.936;4.654;2023-05-28T13:12:07;15.32;;;4.60;;
26335;SDS011;14047;50.936;4.654;2023-05-28T13:14:33;13.23;;;4.25;;
26335;SDS011;14047;50.936;4.654;2023-05-28T13:16:59;8.82;;;4.68;;
26335;SDS011;14047;50.936;4.654;2023-05-28T13:19:25;13.77;;;4.60;;
26335;SDS011;14047;50.936;4.654;2023-05-28T13:21:52;10.63;;;4.90;;
26335;SDS011;14047;50.936;4.654;2023-05-28T13:24:18;12.95;;;4.10;;
26335;SDS011;14047;50.936;4.654;2023-05-28T13:26:44;11.65;;;4.47;;
26335;SDS011;14047;50.936;4.654;2023-05-28T13:29:10;10.15;;;3.90;;
26335;SDS011;14047;50.936;4.654;2023-05-28T13:31:36;13.40;;;4.60;;
26335;SDS011;14047;50.936;4.654;2023-05-28T13:34:02;7.88;;;3.95;;
26335;SDS011;14047;50.936;4.654;2023-05-28T13:36:29;9.68;;;3.90;;
26335;SDS011;14047;50.936;4.654;2023-05-28T13:38:56;9.68;;;4.47;;
26335;SDS011;14047;50.936;4.654;2023-05-28T13:41:22;11.63;;;3.58;;
26335;SDS011;14047;50.936;4.654;2023-05-28T13:43:50;11.07;;;4.47;;
26335;SDS011;14047;50.936;4.654;2023-05-28T13:46:20;10.38;;;4.05;;
26335;SDS011;14047;50.936;4.654;2023-05-28T13:48:47;11.52;;;4.88;;
26335;SDS011;14047;50.936;4.654;2023-05-28T13:51:13;12.70;;;4.28;;
26335;SDS011;14047;50.936;4.654;2023-05-28T13:53:40;10.25;;;4.10;;
26335;SDS011;14047;50.936;4.654;2023-05-28T13:56:06;8.10;;;3.95;;
26335;SDS011;14047;50.936;4.654;2023-05-28T13:58:34;12.88;;;3.80;;
26335;SDS011;14047;50.936;4.654;2023-05-28T14:01:00;9.40;;;3.85;;
26335;SDS011;14047;50.936;4.654;2023-05-28T14:03:26;10.75;;;3.78;;
26335;SDS011;14047;50.936;4.654;2023-05-28T14:05:52;11.63;;;4.45;;
26335;SDS011;14047;50.936;4.654;2023-05-28T14:08:18;9.00;;;3.70;;
26335;SDS011;14047;50.936;4.654;2023-05-28T14:10:44;9.18;;;3.72;;
26335;SDS011;14047;50.936;4.654;2023-05-28T14:13:10;11.00;;;3.78;;
26335;SDS011;14047;50.936;4.654;2023-05-28T14:15:36;10.30;;;3.45;;
26335;SDS011;14047;50.936;4.654;2023-05-28T14:18:02;8.43;;;4.00;;
26335;SDS011;14047;50.936;4.654;2023-05-28T14:20:28;6.05;;;3.60;;
26335;SDS011;14047;50.936;4.654;2023-05-28T14:22:54;8.68;;;3.65;;
26335;SDS011;14047;50.936;4.654;2023-05-28T14:25:20;9.40;;;3.90;;
26335;SDS011;14047;50.936;4.654;2023-05-28T14:27:46;9.45;;;3.72;;
26335;SDS011;14047;50.936;4.654;2023-05-28T14:30:13;11.73;;;3.72;;
26335;SDS011;14047;50.936;4.654;2023-05-28T14:32:39;10.32;;;3.78;;
26335;SDS011;14047;50.936;4.654;2023-05-28T14:35:05;7.78;;;3.72;;
26335;SDS011;14047;50.936;4.654;2023-05-28T14:37:31;7.65;;;3.20;;
26335;SDS011;14047;50.936;4.654;2023-05-28T14:39:57;9.73;;;3.22;;
26335;SDS011;14047;50.936;4.654;2023-05-28T14:42:22;11.13;;;3.90;;
26335;SDS011;14047;50.936;4.654;2023-05-28T14:44:48;8.38;;;3.30;;
26335;SDS011;14047;50.936;4.654;2023-05-28T14:47:14;10.30;;;3.78;;
26335;SDS011;14047;50.936;4.654;2023-05-28T14:49:40;10.35;;;3.65;;